Hewitt, NJ (07421)

3:12 PM EDT on March 28, 2015 (GMT -0400)
Weather Station EW0157 | | Change Station
CLOSE
Current Station
Personal Weather Station
Location: West Milford, NJ
Elevation: 675 ft
Nearby Weather Stations

Elev 675 ft 41.15 °N, 74.35 °W | Updated 16 seconds ago

Overcast
Overcast
35.0 °F
Feels Like 35 °F
N
3.0
Wind Variable Wind from NNW
Gusts 6.0 mph

Today
High -- | Low -- °F
--% Chance of Precip.
Yesterday
High -- | Low -- °F
Precip. -- in
6:47 AM 7:17 PM
Waxing Gibbous, 64% visible
Pressure 29.88 in
Visibility 10.0 miles
Clouds Few 4700 ft
Mostly Cloudy 8500 ft
Windchill 35 °F
Dew Point 20 °F
Humidity 53%
Rainfall 0.00 in
Snow Depth Not available.
UV 3 out of 12
Pollen 8.00 out of 12
Air Quality Not available.
Flu Activity Not available.
METAR KFWN 281853Z AUTO 33009G19KT 280V360 10SM FEW047 BKN085 02/M09 A2986 RMK AO2 SLP116 T00221089

More Conditions Fewer Conditions

Pressure 29.88 in
Visibility 10.0 miles
Clouds Few 4700 ft
Mostly Cloudy 8500 ft
Windchill 35 °F
Dew Point 20 °F
Humidity 53%
Rainfall 0.00 in
Snow Depth Not available.
UV 3 out of 12
Pollen 8.00 out of 12
Air Quality Not available.
Flu Activity Not available.
METAR KFWN 281853Z AUTO 33009G19KT 280V360 10SM FEW047 BKN085 02/M09 A2986 RMK AO2 SLP116 T00221089

More Conditions Fewer Conditions

10-Day Weather Forecast

Almanac

Astronomy

Mar. 28, 2015 Rise Set
Actual Time
Civil Twilight
Nautical Twilight
Astronomical Twilight
Moon
Length of Visible Light
Length of Day
Tomorrow will be .
, % of the Moon is Illuminated

Today's Extremes

State Highs State Lows

Community

WunderPhotos

Upload Photos

1,809,069 photos uploaded!

WunderBlogs® & News

Nearby

Air Quality

  Air Quality AQ Index Pollutant
Not available.

Snow Depth

Station Depth Elevation

Earthquake Activity

City Distance Mag. Time & Date
Minimum magnitude displayed is 2.5.

Coastal Water Temperatures

Place Temperature

Stations

Nearby Weather Stations

Station Location Temp. Windchill Dew Point Humidity Wind Precip. Elev Updated Type